createdAt,value
2022-10-24T00:02:26.401Z,6.37
2022-10-24T00:04:53.415Z,7.17
2022-10-24T00:07:20.422Z,5.13
2022-10-24T00:09:47.581Z,3.37
2022-10-24T00:12:14.705Z,6.33
2022-10-24T00:14:46.088Z,6.87
2022-10-24T00:17:12.632Z,4.73
2022-10-24T00:19:39.168Z,5.17
2022-10-24T00:22:05.712Z,4.77
2022-10-24T00:24:32.252Z,8.03
2022-10-24T00:26:58.810Z,9.50
2022-10-24T00:29:25.392Z,6.73
2022-10-24T00:31:51.930Z,7.33
2022-10-24T00:34:18.674Z,7.73
2022-10-24T00:36:45.323Z,6.73
2022-10-24T00:39:13.104Z,6.63
2022-10-24T00:41:42.807Z,3.23
2022-10-24T00:44:30.573Z,7.07
2022-10-24T00:47:11.270Z,5.97
2022-10-24T00:49:45.996Z,5.77
2022-10-24T00:52:16.323Z,7.00
2022-10-24T00:54:43.152Z,4.50
2022-10-24T00:57:19.217Z,4.30
2022-10-24T00:59:49.343Z,7.40
2022-10-24T01:02:15.972Z,6.30
2022-10-24T01:04:42.863Z,5.90
2022-10-24T01:07:47.184Z,5.33
2022-10-24T01:10:55.566Z,5.53
2022-10-24T01:13:39.485Z,5.33
2022-10-24T01:16:18.491Z,7.93
2022-10-24T01:18:59.932Z,4.20
2022-10-24T01:21:34.123Z,4.60
2022-10-24T01:24:07.011Z,5.00
2022-10-24T01:26:50.167Z,5.60
2022-10-24T01:29:20.729Z,6.87
2022-10-24T01:32:00.005Z,6.93
2022-10-24T01:34:29.197Z,7.63
2022-10-24T01:37:01.926Z,6.90
2022-10-24T01:39:30.808Z,6.37
2022-10-24T01:41:59.277Z,5.93
2022-10-24T01:44:30.755Z,3.70
2022-10-24T01:46:59.906Z,8.37
2022-10-24T01:49:29.246Z,6.97
2022-10-24T01:51:58.140Z,4.43
2022-10-24T01:54:25.279Z,10.47
2022-10-24T01:56:52.353Z,8.43
2022-10-24T01:59:28.523Z,8.35
2022-10-24T02:02:01.700Z,5.03
2022-10-24T02:04:29.729Z,7.87
2022-10-24T02:06:57.782Z,7.33
2022-10-24T02:09:24.957Z,7.70
2022-10-24T02:11:52.591Z,5.70
2022-10-24T02:14:21.881Z,4.23
2022-10-24T02:16:48.859Z,6.13
2022-10-24T02:19:16.223Z,4.83
2022-10-24T02:21:45.898Z,7.13
2022-10-24T02:24:16.090Z,5.23
2022-10-24T02:26:54.739Z,5.50
2022-10-24T02:29:26.994Z,6.03
2022-10-24T02:31:55.428Z,5.20
2022-10-24T02:34:23.175Z,5.57
2022-10-24T02:36:51.736Z,6.97
2022-10-24T02:39:19.289Z,8.57
2022-10-24T02:41:47.077Z,5.70
2022-10-24T02:44:15.845Z,7.27
2022-10-24T02:46:43.900Z,11.37
2022-10-24T02:49:11.033Z,7.03
2022-10-24T02:51:39.488Z,10.87
2022-10-24T02:54:06.578Z,10.90
2022-10-24T02:56:34.025Z,8.20
2022-10-24T02:59:01.003Z,7.27
2022-10-24T03:01:28.195Z,5.90
2022-10-24T03:03:55.232Z,7.10
2022-10-24T03:06:22.213Z,7.03
2022-10-24T03:08:49.247Z,9.13
2022-10-24T03:11:16.442Z,10.60
2022-10-24T03:13:43.456Z,10.13
2022-10-24T03:16:13.217Z,6.80
2022-10-24T03:18:41.237Z,6.60
2022-10-24T03:21:08.265Z,6.87
2022-10-24T03:23:35.241Z,13.83
2022-10-24T03:26:02.277Z,9.17
2022-10-24T03:28:29.264Z,12.87
2022-10-24T03:30:56.307Z,7.73
2022-10-24T03:33:23.466Z,10.60
2022-10-24T03:35:53.540Z,9.90
2022-10-24T03:38:20.904Z,13.03
2022-10-24T03:40:47.874Z,7.93
2022-10-24T03:43:15.056Z,7.13
2022-10-24T03:45:42.314Z,11.63
2022-10-24T03:48:09.675Z,11.00
2022-10-24T03:50:36.731Z,14.27
2022-10-24T03:53:03.830Z,7.13
2022-10-24T03:55:31.223Z,9.50
2022-10-24T03:57:58.280Z,7.03
2022-10-24T04:00:28.030Z,7.70
2022-10-24T04:02:55.047Z,7.70
2022-10-24T04:05:22.245Z,12.57
2022-10-24T04:07:49.238Z,8.60
2022-10-24T04:10:16.252Z,12.50
2022-10-24T04:12:43.221Z,14.03
2022-10-24T04:15:10.470Z,10.03
2022-10-24T04:17:37.467Z,10.07
2022-10-24T04:20:04.843Z,8.90
2022-10-24T04:22:31.812Z,12.33
2022-10-24T04:24:58.770Z,8.70
2022-10-24T04:27:25.836Z,10.30
2022-10-24T04:29:52.784Z,6.47
2022-10-24T04:32:19.777Z,9.53
2022-10-24T04:34:46.779Z,11.27
2022-10-24T04:37:13.873Z,7.40
2022-10-24T04:39:40.910Z,8.47
2022-10-24T04:42:07.891Z,8.90
2022-10-24T04:44:34.958Z,9.90
2022-10-24T04:47:02.011Z,12.17
2022-10-24T04:49:28.971Z,9.73
2022-10-24T04:51:55.950Z,13.17
2022-10-24T04:54:23.116Z,10.93
2022-10-24T04:56:50.122Z,9.83
2022-10-24T04:59:17.079Z,7.20
2022-10-24T05:01:44.106Z,10.03
2022-10-24T05:04:12.498Z,8.37
2022-10-24T05:06:42.712Z,11.03
2022-10-24T05:09:11.896Z,8.57
2022-10-24T05:11:38.875Z,9.73
2022-10-24T05:14:08.188Z,15.17
2022-10-24T05:16:35.222Z,11.15
2022-10-24T05:19:02.199Z,9.53
2022-10-24T05:21:29.199Z,7.57
2022-10-24T05:23:56.248Z,7.70
2022-10-24T05:26:23.303Z,9.37
2022-10-24T05:28:52.563Z,10.53
2022-10-24T05:31:19.957Z,7.63
2022-10-24T05:33:47.002Z,8.63
2022-10-24T05:36:14.081Z,8.10
2022-10-24T05:38:41.119Z,11.80
2022-10-24T05:41:08.333Z,9.83
2022-10-24T05:43:35.356Z,10.63
2022-10-24T05:46:02.427Z,7.93
2022-10-24T05:48:29.440Z,5.90
2022-10-24T05:50:57.643Z,9.10
2022-10-24T05:53:25.135Z,10.50
2022-10-24T05:55:52.131Z,7.67
2022-10-24T05:58:21.254Z,10.97
2022-10-24T06:00:53.552Z,12.07
2022-10-24T06:03:21.144Z,9.73
2022-10-24T06:05:48.125Z,10.10
2022-10-24T06:08:15.098Z,10.63
2022-10-24T06:10:42.167Z,8.43
2022-10-24T06:13:09.135Z,8.13
2022-10-24T06:15:36.444Z,11.53
2022-10-24T06:18:03.484Z,8.57
2022-10-24T06:20:30.478Z,9.80
2022-10-24T06:22:57.455Z,8.53
2022-10-24T06:25:24.514Z,9.97
2022-10-24T06:27:51.492Z,7.43
2022-10-24T06:30:18.524Z,6.90
2022-10-24T06:32:45.820Z,8.33
2022-10-24T06:35:14.646Z,7.60
2022-10-24T06:37:44.339Z,11.02
2022-10-24T06:40:14.264Z,10.03
2022-10-24T06:42:41.242Z,10.53
2022-10-24T06:45:08.449Z,8.57
2022-10-24T06:47:35.557Z,10.33
2022-10-24T06:50:02.813Z,7.63
2022-10-24T06:52:29.794Z,12.83
2022-10-24T06:54:56.861Z,21.27
2022-10-24T06:57:23.951Z,19.80
2022-10-24T06:59:53.267Z,15.60
2022-10-24T07:02:20.370Z,14.27
2022-10-24T07:04:47.402Z,13.37
2022-10-24T07:07:19.071Z,11.03
2022-10-24T07:09:46.406Z,12.83
2022-10-24T07:12:13.415Z,8.23
2022-10-24T07:14:40.487Z,11.27
2022-10-24T07:17:07.449Z,12.40
2022-10-24T07:19:43.383Z,8.17
2022-10-24T07:22:10.508Z,8.70
2022-10-24T07:24:37.469Z,10.07
2022-10-24T07:27:04.461Z,8.57
2022-10-24T07:29:31.464Z,7.00
2022-10-24T07:31:59.458Z,11.07
2022-10-24T07:34:26.431Z,7.73
2022-10-24T07:36:53.406Z,6.70
2022-10-24T07:39:20.377Z,8.50
2022-10-24T07:41:47.458Z,8.97
2022-10-24T07:44:14.436Z,5.67
2022-10-24T07:46:42.457Z,11.47
2022-10-24T07:49:09.942Z,8.40
2022-10-24T07:51:37.005Z,8.40
2022-10-24T07:54:04.054Z,5.80
2022-10-24T07:56:31.030Z,13.70
2022-10-24T07:58:58.638Z,9.07
2022-10-24T08:01:26.469Z,7.63
2022-10-24T08:03:53.591Z,8.53
2022-10-24T08:06:22.263Z,8.83
2022-10-24T08:08:49.296Z,9.73
2022-10-24T08:11:17.676Z,8.03
2022-10-24T08:13:45.125Z,9.60
2022-10-24T08:16:12.911Z,6.00
2022-10-24T08:18:40.273Z,9.70
2022-10-24T08:21:08.694Z,8.70
2022-10-24T08:23:36.367Z,4.33
2022-10-24T08:26:06.961Z,9.17
2022-10-24T08:28:33.939Z,6.90
2022-10-24T08:31:02.417Z,8.48
2022-10-24T08:33:29.641Z,8.27
2022-10-24T08:35:59.066Z,8.80
2022-10-24T08:38:26.135Z,5.97
2022-10-24T08:40:53.286Z,5.13
2022-10-24T08:43:20.770Z,11.03
2022-10-24T08:45:58.779Z,5.60
2022-10-24T08:48:35.622Z,7.47
2022-10-24T08:51:11.585Z,9.73
2022-10-24T08:53:39.230Z,10.73
2022-10-24T08:56:06.669Z,8.73
2022-10-24T08:58:38.182Z,9.77
2022-10-24T09:01:13.315Z,10.33
2022-10-24T09:04:00.319Z,9.77
2022-10-24T09:06:28.377Z,8.35
2022-10-24T09:08:58.037Z,8.23
2022-10-24T09:11:43.597Z,8.60
2022-10-24T09:14:43.122Z,4.70
2022-10-24T09:17:20.874Z,9.57
2022-10-24T09:19:50.601Z,8.07
2022-10-24T09:22:17.955Z,7.53
2022-10-24T09:24:52.807Z,7.13
2022-10-24T09:29:49.315Z,8.53
2022-10-24T09:32:23.843Z,8.27
2022-10-24T09:34:51.395Z,5.73
2022-10-24T09:37:41.262Z,7.30
2022-10-24T09:40:30.611Z,6.73
2022-10-24T09:42:57.603Z,6.27
2022-10-24T09:45:30.659Z,5.43
2022-10-24T09:47:58.906Z,4.27
2022-10-24T09:50:26.004Z,10.43
2022-10-24T09:52:54.349Z,10.07
2022-10-24T09:55:24.161Z,5.87
2022-10-24T09:57:56.671Z,8.47
2022-10-24T10:00:28.611Z,6.00
2022-10-24T10:02:58.766Z,5.87
2022-10-24T10:05:25.766Z,7.50
2022-10-24T10:07:52.945Z,11.03
2022-10-24T10:10:19.936Z,10.63
2022-10-24T10:12:57.851Z,6.17
2022-10-24T10:15:27.653Z,6.73
2022-10-24T10:17:56.957Z,8.23
2022-10-24T10:20:35.684Z,8.33
2022-10-24T10:23:23.730Z,7.37
2022-10-24T10:25:50.882Z,6.20
2022-10-24T10:28:22.477Z,10.10
2022-10-24T10:30:52.007Z,7.90
2022-10-24T10:33:18.986Z,4.20
2022-10-24T10:36:01.385Z,8.70
2022-10-24T10:38:37.552Z,5.57
2022-10-24T10:41:16.459Z,11.57
2022-10-24T10:43:46.506Z,12.80
2022-10-24T10:46:17.215Z,8.47
2022-10-24T10:48:50.347Z,8.60
2022-10-24T10:51:49.630Z,5.70
2022-10-24T10:54:19.365Z,5.83
2022-10-24T10:56:50.513Z,5.80
2022-10-24T10:59:25.771Z,6.67
2022-10-24T11:02:14.660Z,6.00
2022-10-24T11:04:41.723Z,4.33
2022-10-24T11:07:28.820Z,5.03
2022-10-24T11:09:59.426Z,5.67
2022-10-24T11:12:26.366Z,4.77
2022-10-24T11:15:01.150Z,3.87
2022-10-24T11:17:35.179Z,5.60
2022-10-24T11:20:11.112Z,5.97
2022-10-24T11:22:43.625Z,4.43
2022-10-24T11:25:22.628Z,5.73
2022-10-24T11:27:55.659Z,5.43
2022-10-24T11:30:30.131Z,3.30
2022-10-24T11:33:02.799Z,3.97
2022-10-24T11:35:33.031Z,4.33
2022-10-24T11:38:03.258Z,4.90
2022-10-24T11:40:31.154Z,3.97
2022-10-24T11:43:02.935Z,3.70
2022-10-24T11:45:34.124Z,5.47
2022-10-24T11:48:10.932Z,5.73
2022-10-24T11:50:56.182Z,5.60
2022-10-24T11:53:29.175Z,4.77
2022-10-24T11:56:02.149Z,3.83
2022-10-24T11:58:30.327Z,4.77
2022-10-24T12:00:57.300Z,3.70
2022-10-24T12:03:43.100Z,3.63
2022-10-24T12:06:18.920Z,3.37
2022-10-24T12:08:51.623Z,6.43
2022-10-24T12:11:18.623Z,6.60
2022-10-24T12:13:53.359Z,5.60
2022-10-24T12:16:38.537Z,3.50
2022-10-24T12:19:06.706Z,5.83
2022-10-24T12:21:39.728Z,6.13
2022-10-24T12:24:07.291Z,4.23
2022-10-24T12:26:35.859Z,5.40
2022-10-24T12:29:04.590Z,7.70
2022-10-24T12:31:37.362Z,6.07
2022-10-24T12:34:19.361Z,5.20
2022-10-24T12:37:04.896Z,4.17
2022-10-24T12:39:42.295Z,4.37
2022-10-24T12:42:31.799Z,6.20
2022-10-24T12:45:19.055Z,4.70
2022-10-24T12:50:22.962Z,4.63
2022-10-24T12:52:51.846Z,3.93
2022-10-24T12:55:39.693Z,4.17
2022-10-24T12:58:39.395Z,3.10
2022-10-24T13:01:12.025Z,3.23
2022-10-24T13:03:52.925Z,3.10
2022-10-24T13:06:20.639Z,5.33
2022-10-24T13:08:57.683Z,3.70
2022-10-24T13:11:38.570Z,2.73
2022-10-24T13:14:16.319Z,4.87
2022-10-24T13:16:58.773Z,4.80
2022-10-24T13:19:26.519Z,4.63
2022-10-24T13:21:57.242Z,4.80
2022-10-24T13:24:24.236Z,3.87
2022-10-24T13:27:12.741Z,4.50
2022-10-24T13:29:41.058Z,5.33
2022-10-24T13:32:08.033Z,7.47
2022-10-24T13:34:45.755Z,5.30
2022-10-24T13:37:34.543Z,5.73
2022-10-24T13:40:01.489Z,5.37
2022-10-24T13:42:43.347Z,3.20
2022-10-24T13:45:21.562Z,3.50
2022-10-24T13:47:54.469Z,5.00
2022-10-24T13:50:26.832Z,5.77
2022-10-24T13:52:57.719Z,3.13
2022-10-24T13:55:26.814Z,4.93
2022-10-24T13:57:55.434Z,7.07
2022-10-24T14:00:24.631Z,4.33
2022-10-24T14:02:52.472Z,3.77
2022-10-24T14:05:22.031Z,5.27
2022-10-24T14:07:49.857Z,3.97
2022-10-24T14:10:19.907Z,4.00
2022-10-24T14:12:48.827Z,3.97
2022-10-24T14:15:18.065Z,4.53
2022-10-24T14:17:53.777Z,5.20
2022-10-24T14:20:25.150Z,3.50
2022-10-24T14:22:52.250Z,5.70
2022-10-24T14:25:24.308Z,6.10
2022-10-24T14:27:52.323Z,2.47
2022-10-24T14:30:21.518Z,4.00
2022-10-24T14:32:48.503Z,4.97
2022-10-24T14:35:16.487Z,3.03
2022-10-24T14:37:43.896Z,13.30
2022-10-24T14:40:18.026Z,2.20
2022-10-24T14:42:48.742Z,3.50
2022-10-24T14:45:31.419Z,3.73
2022-10-24T14:47:59.307Z,4.05
2022-10-24T14:50:40.386Z,4.40
2022-10-24T14:53:15.074Z,3.27
2022-10-24T14:55:42.249Z,3.73
2022-10-24T14:58:20.599Z,4.10
2022-10-24T15:00:47.598Z,5.63
2022-10-24T15:03:16.629Z,6.17
2022-10-24T15:05:53.460Z,4.87
2022-10-24T15:08:25.487Z,3.27
2022-10-24T15:11:03.821Z,3.77
2022-10-24T15:13:32.531Z,4.57
2022-10-24T15:16:00.538Z,3.93
2022-10-24T15:18:31.791Z,4.03
2022-10-24T15:21:04.465Z,5.03
2022-10-24T15:23:32.762Z,3.07
2022-10-24T15:26:08.998Z,2.30
2022-10-24T15:28:37.638Z,7.37
2022-10-24T15:31:04.976Z,3.20
2022-10-24T15:33:32.305Z,5.23
2022-10-24T15:35:59.328Z,2.53
2022-10-24T15:38:26.282Z,4.00
2022-10-24T15:40:53.641Z,4.50
2022-10-24T15:43:20.638Z,2.20
2022-10-24T15:45:47.876Z,3.30
2022-10-24T15:48:14.868Z,5.63
2022-10-24T15:50:46.100Z,4.00
2022-10-24T15:53:22.482Z,4.40
2022-10-24T15:55:49.633Z,2.37
2022-10-24T15:58:17.930Z,2.50
2022-10-24T16:00:45.296Z,3.93
2022-10-24T16:03:14.410Z,3.10
2022-10-24T16:05:42.871Z,4.37
2022-10-24T16:08:19.658Z,3.23
2022-10-24T16:10:49.006Z,3.30
2022-10-24T16:13:15.987Z,3.20
2022-10-24T16:15:43.680Z,3.93
2022-10-24T16:18:10.989Z,2.63
2022-10-24T16:20:38.012Z,4.50
2022-10-24T16:23:05.611Z,3.03
2022-10-24T16:25:34.663Z,3.93
2022-10-24T16:28:01.694Z,5.17
2022-10-24T16:30:30.062Z,4.30
2022-10-24T16:32:57.224Z,3.93
2022-10-24T16:35:25.899Z,3.47
2022-10-24T16:37:53.366Z,4.23
2022-10-24T16:40:20.712Z,5.67
2022-10-24T16:42:51.427Z,5.30
2022-10-24T16:45:18.486Z,6.00
2022-10-24T16:47:45.699Z,4.50
2022-10-24T16:50:14.091Z,8.33
2022-10-24T16:52:41.077Z,5.63
2022-10-24T16:55:08.438Z,5.10
2022-10-24T16:57:35.528Z,3.60
2022-10-24T17:00:02.536Z,3.07
2022-10-24T17:02:29.534Z,4.77
2022-10-24T17:04:56.487Z,4.57
2022-10-24T17:07:23.569Z,3.30
2022-10-24T17:09:50.564Z,6.47
2022-10-24T17:12:17.542Z,6.80
2022-10-24T17:14:44.561Z,2.87
2022-10-24T17:17:11.796Z,3.53
2022-10-24T17:19:39.142Z,4.73
2022-10-24T17:22:06.191Z,3.67
2022-10-24T17:24:34.414Z,2.87
2022-10-24T17:27:01.417Z,3.83
2022-10-24T17:29:30.371Z,4.33
2022-10-24T17:31:57.843Z,4.23
2022-10-24T17:34:25.347Z,4.47
2022-10-24T17:37:01.438Z,8.77
2022-10-24T17:39:32.142Z,7.97
2022-10-24T17:41:59.680Z,4.03
2022-10-24T17:44:26.731Z,6.53
2022-10-24T17:46:57.439Z,6.63
2022-10-24T17:49:25.315Z,3.57
2022-10-24T17:51:52.355Z,3.20
2022-10-24T17:54:19.307Z,5.80
2022-10-24T17:56:46.385Z,3.80
2022-10-24T17:59:13.458Z,3.40
2022-10-24T18:01:40.637Z,4.20
2022-10-24T18:04:08.050Z,5.03
2022-10-24T18:06:37.270Z,4.17
2022-10-24T18:09:07.620Z,8.47
2022-10-24T18:11:34.674Z,13.23
2022-10-24T18:14:01.777Z,8.57
2022-10-24T18:16:30.635Z,7.80
2022-10-24T18:18:58.050Z,10.00
2022-10-24T18:21:27.179Z,3.77
2022-10-24T18:23:54.218Z,7.67
2022-10-24T18:26:22.673Z,2.60
2022-10-24T18:28:50.819Z,4.20
2022-10-24T18:31:19.148Z,3.83
2022-10-24T18:33:46.695Z,3.40
2022-10-24T18:36:15.054Z,4.73
2022-10-24T18:38:42.428Z,3.10
2022-10-24T18:41:21.471Z,7.83
2022-10-24T18:43:48.527Z,4.73
2022-10-24T18:46:16.060Z,6.17
2022-10-24T18:48:43.172Z,11.60
2022-10-24T18:51:18.287Z,5.43
2022-10-24T18:53:46.352Z,12.20
2022-10-24T18:56:15.246Z,14.80
2022-10-24T18:58:44.430Z,17.07
2022-10-24T19:01:20.010Z,9.73
2022-10-24T19:03:47.225Z,12.97
2022-10-24T19:06:25.697Z,5.00
2022-10-24T19:08:52.797Z,12.37
2022-10-24T19:11:21.036Z,10.87
2022-10-24T19:13:48.050Z,7.27
2022-10-24T19:16:23.135Z,3.63
2022-10-24T19:18:53.652Z,5.03
2022-10-24T19:21:21.300Z,6.20
2022-10-24T19:23:48.664Z,4.50
2022-10-24T19:26:15.682Z,5.50
2022-10-24T19:28:42.712Z,7.30
2022-10-24T19:31:10.025Z,4.93
2022-10-24T19:33:36.990Z,9.13
2022-10-24T19:36:05.008Z,6.33
2022-10-24T19:38:32.179Z,3.83
2022-10-24T19:40:59.430Z,6.03
2022-10-24T19:43:28.919Z,4.23
2022-10-24T19:48:43.471Z,7.23
2022-10-24T19:51:12.017Z,4.27
2022-10-24T19:53:40.194Z,5.63
2022-10-24T19:56:20.094Z,3.53
2022-10-24T19:58:49.622Z,2.50
2022-10-24T20:01:24.325Z,2.60
2022-10-24T20:03:51.757Z,3.77
2022-10-24T20:06:19.019Z,2.57
2022-10-24T20:08:46.643Z,4.87
2022-10-24T20:11:15.317Z,5.40
2022-10-24T20:13:42.578Z,2.73
2022-10-24T20:16:10.396Z,4.50
2022-10-24T20:18:37.892Z,2.67
2022-10-24T20:21:06.471Z,5.13
2022-10-24T20:23:33.756Z,4.63
2022-10-24T20:26:08.736Z,5.93
2022-10-24T20:28:37.145Z,5.13
2022-10-24T20:31:04.350Z,3.60
2022-10-24T20:33:31.457Z,4.43
2022-10-24T20:35:59.505Z,3.37
2022-10-24T20:38:26.959Z,5.43
2022-10-24T20:40:54.290Z,4.10
2022-10-24T20:43:21.277Z,4.00
2022-10-24T20:45:48.324Z,3.63
2022-10-24T20:48:15.286Z,6.17
2022-10-24T20:50:42.251Z,5.80
2022-10-24T20:53:09.223Z,1.73
2022-10-24T20:55:44.348Z,3.83
2022-10-24T20:58:13.402Z,2.83
2022-10-24T21:03:11.878Z,2.63
2022-10-24T21:05:38.930Z,2.27
2022-10-24T21:08:06.039Z,1.80
2022-10-24T21:10:33.022Z,1.95
2022-10-24T21:13:00.067Z,2.73
2022-10-24T21:15:27.064Z,2.17
2022-10-24T21:17:54.014Z,3.23
2022-10-24T21:20:21.005Z,2.10
2022-10-24T21:22:47.986Z,3.17
2022-10-24T21:25:14.983Z,1.70
2022-10-24T21:27:41.955Z,2.77
2022-10-24T21:30:14.286Z,3.67
2022-10-24T21:32:41.873Z,2.70
2022-10-24T21:35:08.919Z,4.10
2022-10-24T21:37:35.939Z,3.00
2022-10-24T21:40:02.907Z,3.83
2022-10-24T21:42:35.971Z,4.87
2022-10-24T21:45:02.931Z,3.43
2022-10-24T21:47:29.956Z,2.83
2022-10-24T21:49:56.922Z,4.22
2022-10-24T21:52:23.940Z,2.00
2022-10-24T21:54:50.978Z,2.90
2022-10-24T21:57:17.962Z,4.27
2022-10-24T21:59:44.917Z,1.70
2022-10-24T22:02:12.193Z,1.90
2022-10-24T22:04:39.262Z,2.87
2022-10-24T22:07:07.115Z,2.97
2022-10-24T22:09:34.152Z,4.40
2022-10-24T22:12:01.206Z,3.13
2022-10-24T22:14:28.175Z,3.30
2022-10-24T22:16:55.164Z,3.07
2022-10-24T22:19:22.150Z,2.43
2022-10-24T22:21:49.854Z,5.13
2022-10-24T22:24:18.754Z,1.70
2022-10-24T22:26:45.745Z,2.43
2022-10-24T22:29:17.119Z,2.13
2022-10-24T22:31:44.378Z,2.57
2022-10-24T22:34:21.785Z,2.90
2022-10-24T22:37:05.389Z,3.00
2022-10-24T22:39:32.787Z,2.43
2022-10-24T22:41:59.932Z,4.43
2022-10-24T22:44:27.115Z,4.53
2022-10-24T22:46:54.046Z,3.47
2022-10-24T22:49:36.402Z,2.37
2022-10-24T22:52:03.585Z,3.00
2022-10-24T22:54:33.430Z,2.17
2022-10-24T22:57:00.561Z,3.83
2022-10-24T22:59:27.792Z,5.37
2022-10-24T23:02:08.145Z,3.40
2022-10-24T23:04:39.472Z,2.73
2022-10-24T23:07:14.991Z,2.97
2022-10-24T23:09:42.001Z,2.53
2022-10-24T23:12:12.057Z,4.47
2022-10-24T23:14:39.117Z,2.73
2022-10-24T23:17:08.588Z,3.03
2022-10-24T23:19:39.377Z,2.40
2022-10-24T23:22:32.580Z,4.10
2022-10-24T23:25:00.960Z,5.70
2022-10-24T23:27:35.380Z,3.77
2022-10-24T23:30:04.397Z,2.93
2022-10-24T23:32:36.111Z,4.60
2022-10-24T23:35:03.235Z,3.40
2022-10-24T23:37:36.406Z,6.10
2022-10-24T23:40:23.711Z,3.33
2022-10-24T23:42:52.186Z,4.07
2022-10-24T23:45:20.812Z,2.70
2022-10-24T23:48:18.797Z,4.63
2022-10-24T23:50:55.199Z,4.27
2022-10-24T23:53:40.864Z,6.43
2022-10-24T23:56:12.164Z,3.80
2022-10-24T23:58:39.110Z,5.97
